sensor_id;sensor_type;location;lat;lon;timestamp;P1;durP1;ratioP1;P2;durP2;ratioP2
36315;SDS011;22343;50.820;2.666;2023-10-19T00:01:35;2.10;;;1.40;;
36315;SDS011;22343;50.820;2.666;2023-10-19T00:04:21;3.22;;;1.85;;
36315;SDS011;22343;50.820;2.666;2023-10-19T00:07:06;2.45;;;1.40;;
36315;SDS011;22343;50.820;2.666;2023-10-19T00:09:51;2.75;;;1.40;;
36315;SDS011;22343;50.820;2.666;2023-10-19T00:12:37;2.70;;;1.60;;
36315;SDS011;22343;50.820;2.666;2023-10-19T00:15:22;3.05;;;1.58;;
36315;SDS011;22343;50.820;2.666;2023-10-19T00:18:10;3.78;;;1.65;;
36315;SDS011;22343;50.820;2.666;2023-10-19T00:21:00;3.88;;;1.60;;
36315;SDS011;22343;50.820;2.666;2023-10-19T00:23:57;2.50;;;1.52;;
36315;SDS011;22343;50.820;2.666;2023-10-19T00:26:43;3.28;;;1.50;;
36315;SDS011;22343;50.820;2.666;2023-10-19T00:29:28;3.05;;;1.55;;
36315;SDS011;22343;50.820;2.666;2023-10-19T00:32:15;3.60;;;1.50;;
36315;SDS011;22343;50.820;2.666;2023-10-19T00:35:02;4.68;;;1.90;;
36315;SDS011;22343;50.820;2.666;2023-10-19T00:37:53;4.25;;;1.90;;
36315;SDS011;22343;50.820;2.666;2023-10-19T00:40:42;4.05;;;1.50;;
36315;SDS011;22343;50.820;2.666;2023-10-19T00:43:31;3.47;;;1.50;;
36315;SDS011;22343;50.820;2.666;2023-10-19T00:46:18;3.28;;;1.77;;
36315;SDS011;22343;50.820;2.666;2023-10-19T00:49:03;3.75;;;2.08;;
36315;SDS011;22343;50.820;2.666;2023-10-19T00:51:52;4.18;;;1.75;;
36315;SDS011;22343;50.820;2.666;2023-10-19T00:54:38;5.13;;;1.83;;
36315;SDS011;22343;50.820;2.666;2023-10-19T00:57:35;2.63;;;1.80;;
36315;SDS011;22343;50.820;2.666;2023-10-19T01:00:21;4.40;;;1.98;;
36315;SDS011;22343;50.820;2.666;2023-10-19T01:03:13;4.25;;;1.90;;
36315;SDS011;22343;50.820;2.666;2023-10-19T01:06:01;3.85;;;1.70;;
36315;SDS011;22343;50.820;2.666;2023-10-19T01:08:49;3.55;;;1.90;;
36315;SDS011;22343;50.820;2.666;2023-10-19T01:11:35;4.70;;;2.00;;
36315;SDS011;22343;50.820;2.666;2023-10-19T01:14:21;3.47;;;1.90;;
36315;SDS011;22343;50.820;2.666;2023-10-19T01:17:07;4.47;;;2.38;;
36315;SDS011;22343;50.820;2.666;2023-10-19T01:19:51;2.88;;;1.88;;
36315;SDS011;22343;50.820;2.666;2023-10-19T01:22:37;2.65;;;1.90;;
36315;SDS011;22343;50.820;2.666;2023-10-19T01:25:21;4.03;;;1.83;;
36315;SDS011;22343;50.820;2.666;2023-10-19T01:28:18;2.85;;;1.70;;
36315;SDS011;22343;50.820;2.666;2023-10-19T01:31:02;5.10;;;1.85;;
36315;SDS011;22343;50.820;2.666;2023-10-19T01:33:51;4.82;;;1.88;;
36315;SDS011;22343;50.820;2.666;2023-10-19T01:36:38;3.70;;;1.90;;
36315;SDS011;22343;50.820;2.666;2023-10-19T01:39:32;3.92;;;1.95;;
36315;SDS011;22343;50.820;2.666;2023-10-19T01:42:19;4.80;;;2.00;;
36315;SDS011;22343;50.820;2.666;2023-10-19T01:45:04;6.22;;;2.25;;
36315;SDS011;22343;50.820;2.666;2023-10-19T01:47:49;4.43;;;1.90;;
36315;SDS011;22343;50.820;2.666;2023-10-19T01:50:36;6.45;;;2.10;;
36315;SDS011;22343;50.820;2.666;2023-10-19T01:53:23;4.10;;;1.90;;
36315;SDS011;22343;50.820;2.666;2023-10-19T01:56:10;3.67;;;1.60;;
36315;SDS011;22343;50.820;2.666;2023-10-19T01:58:55;4.03;;;1.98;;
36315;SDS011;22343;50.820;2.666;2023-10-19T02:01:41;3.20;;;1.73;;
36315;SDS011;22343;50.820;2.666;2023-10-19T02:04:29;5.13;;;1.80;;
36315;SDS011;22343;50.820;2.666;2023-10-19T02:07:18;4.78;;;1.80;;
36315;SDS011;22343;50.820;2.666;2023-10-19T02:10:03;4.38;;;1.83;;
36315;SDS011;22343;50.820;2.666;2023-10-19T02:12:51;3.67;;;1.80;;
36315;SDS011;22343;50.820;2.666;2023-10-19T02:15:39;4.05;;;1.83;;
36315;SDS011;22343;50.820;2.666;2023-10-19T02:18:23;4.18;;;2.00;;
36315;SDS011;22343;50.820;2.666;2023-10-19T02:21:08;5.38;;;1.90;;
36315;SDS011;22343;50.820;2.666;2023-10-19T02:23:56;6.30;;;1.95;;
36315;SDS011;22343;50.820;2.666;2023-10-19T02:26:42;3.83;;;1.80;;
36315;SDS011;22343;50.820;2.666;2023-10-19T02:29:27;6.35;;;2.17;;
36315;SDS011;22343;50.820;2.666;2023-10-19T02:32:12;5.70;;;1.75;;
36315;SDS011;22343;50.820;2.666;2023-10-19T02:34:56;6.38;;;1.83;;
36315;SDS011;22343;50.820;2.666;2023-10-19T02:37:41;5.32;;;2.05;;
36315;SDS011;22343;50.820;2.666;2023-10-19T02:40:25;4.50;;;1.98;;
36315;SDS011;22343;50.820;2.666;2023-10-19T02:43:15;4.60;;;1.77;;
36315;SDS011;22343;50.820;2.666;2023-10-19T02:45:59;5.45;;;1.70;;
36315;SDS011;22343;50.820;2.666;2023-10-19T02:48:46;4.53;;;1.77;;
36315;SDS011;22343;50.820;2.666;2023-10-19T02:51:33;4.82;;;1.60;;
36315;SDS011;22343;50.820;2.666;2023-10-19T02:54:22;3.00;;;1.75;;
36315;SDS011;22343;50.820;2.666;2023-10-19T02:57:08;3.22;;;2.10;;
36315;SDS011;22343;50.820;2.666;2023-10-19T02:59:56;4.88;;;2.13;;
36315;SDS011;22343;50.820;2.666;2023-10-19T03:02:42;5.80;;;1.70;;
36315;SDS011;22343;50.820;2.666;2023-10-19T03:05:27;3.67;;;1.63;;
36315;SDS011;22343;50.820;2.666;2023-10-19T03:08:11;4.30;;;1.60;;
36315;SDS011;22343;50.820;2.666;2023-10-19T03:10:59;4.50;;;2.00;;
36315;SDS011;22343;50.820;2.666;2023-10-19T03:13:51;4.43;;;1.53;;
36315;SDS011;22343;50.820;2.666;2023-10-19T03:16:35;5.03;;;1.90;;
36315;SDS011;22343;50.820;2.666;2023-10-19T03:19:20;2.67;;;1.63;;
36315;SDS011;22343;50.820;2.666;2023-10-19T03:22:05;4.95;;;1.83;;
36315;SDS011;22343;50.820;2.666;2023-10-19T03:24:50;3.00;;;1.70;;
36315;SDS011;22343;50.820;2.666;2023-10-19T03:27:43;5.72;;;2.00;;
36315;SDS011;22343;50.820;2.666;2023-10-19T03:30:28;6.90;;;2.30;;
36315;SDS011;22343;50.820;2.666;2023-10-19T03:33:15;5.22;;;2.30;;
36315;SDS011;22343;50.820;2.666;2023-10-19T03:36:02;4.40;;;1.85;;
36315;SDS011;22343;50.820;2.666;2023-10-19T03:38:53;5.28;;;2.05;;
36315;SDS011;22343;50.820;2.666;2023-10-19T03:41:40;8.73;;;2.20;;
36315;SDS011;22343;50.820;2.666;2023-10-19T03:44:28;3.80;;;1.90;;
36315;SDS011;22343;50.820;2.666;2023-10-19T03:47:25;4.80;;;2.00;;
36315;SDS011;22343;50.820;2.666;2023-10-19T03:50:18;6.57;;;2.13;;
36315;SDS011;22343;50.820;2.666;2023-10-19T03:53:05;3.95;;;1.95;;
36315;SDS011;22343;50.820;2.666;2023-10-19T03:55:50;6.00;;;1.70;;
36315;SDS011;22343;50.820;2.666;2023-10-19T03:58:37;4.65;;;2.13;;
36315;SDS011;22343;50.820;2.666;2023-10-19T04:01:24;4.18;;;2.20;;
36315;SDS011;22343;50.820;2.666;2023-10-19T04:04:08;5.85;;;2.30;;
36315;SDS011;22343;50.820;2.666;2023-10-19T04:06:53;6.65;;;2.20;;
36315;SDS011;22343;50.820;2.666;2023-10-19T04:09:42;6.93;;;2.30;;
36315;SDS011;22343;50.820;2.666;2023-10-19T04:12:45;6.30;;;2.30;;
36315;SDS011;22343;50.820;2.666;2023-10-19T04:15:30;8.00;;;2.50;;
36315;SDS011;22343;50.820;2.666;2023-10-19T04:18:18;6.53;;;2.50;;
36315;SDS011;22343;50.820;2.666;2023-10-19T04:21:02;6.72;;;2.13;;
36315;SDS011;22343;50.820;2.666;2023-10-19T04:23:47;6.20;;;2.50;;
36315;SDS011;22343;50.820;2.666;2023-10-19T04:26:31;8.48;;;2.60;;
36315;SDS011;22343;50.820;2.666;2023-10-19T04:29:21;6.70;;;2.72;;
36315;SDS011;22343;50.820;2.666;2023-10-19T04:32:11;7.75;;;2.80;;
36315;SDS011;22343;50.820;2.666;2023-10-19T04:34:58;7.18;;;2.72;;
36315;SDS011;22343;50.820;2.666;2023-10-19T04:37:42;6.60;;;2.42;;
36315;SDS011;22343;50.820;2.666;2023-10-19T04:40:27;6.93;;;2.53;;
36315;SDS011;22343;50.820;2.666;2023-10-19T04:43:11;6.22;;;2.53;;
36315;SDS011;22343;50.820;2.666;2023-10-19T04:45:55;8.30;;;2.90;;
36315;SDS011;22343;50.820;2.666;2023-10-19T04:48:42;6.38;;;2.60;;
36315;SDS011;22343;50.820;2.666;2023-10-19T04:51:27;5.28;;;2.50;;
36315;SDS011;22343;50.820;2.666;2023-10-19T04:54:12;6.30;;;2.60;;
36315;SDS011;22343;50.820;2.666;2023-10-19T04:56:57;7.43;;;2.88;;
36315;SDS011;22343;50.820;2.666;2023-10-19T04:59:44;7.38;;;2.88;;
36315;SDS011;22343;50.820;2.666;2023-10-19T05:02:29;9.82;;;3.05;;
36315;SDS011;22343;50.820;2.666;2023-10-19T05:05:13;5.72;;;2.60;;
36315;SDS011;22343;50.820;2.666;2023-10-19T05:08:01;7.75;;;2.78;;
36315;SDS011;22343;50.820;2.666;2023-10-19T05:10:45;7.00;;;2.45;;
36315;SDS011;22343;50.820;2.666;2023-10-19T05:13:31;7.25;;;2.92;;
36315;SDS011;22343;50.820;2.666;2023-10-19T05:16:16;7.85;;;3.15;;
36315;SDS011;22343;50.820;2.666;2023-10-19T05:19:01;11.55;;;4.35;;
36315;SDS011;22343;50.820;2.666;2023-10-19T05:21:48;13.05;;;5.88;;
36315;SDS011;22343;50.820;2.666;2023-10-19T05:24:32;14.50;;;6.18;;
36315;SDS011;22343;50.820;2.666;2023-10-19T05:27:17;11.05;;;4.63;;
36315;SDS011;22343;50.820;2.666;2023-10-19T05:30:01;8.90;;;4.38;;
36315;SDS011;22343;50.820;2.666;2023-10-19T05:32:46;14.02;;;6.25;;
36315;SDS011;22343;50.820;2.666;2023-10-19T05:35:33;29.13;;;12.48;;
36315;SDS011;22343;50.820;2.666;2023-10-19T05:38:23;10.32;;;4.40;;
36315;SDS011;22343;50.820;2.666;2023-10-19T05:41:08;11.20;;;4.55;;
36315;SDS011;22343;50.820;2.666;2023-10-19T05:43:52;11.60;;;4.32;;
36315;SDS011;22343;50.820;2.666;2023-10-19T05:46:37;7.87;;;3.27;;
36315;SDS011;22343;50.820;2.666;2023-10-19T05:49:24;7.47;;;3.65;;
36315;SDS011;22343;50.820;2.666;2023-10-19T05:52:08;7.97;;;3.78;;
36315;SDS011;22343;50.820;2.666;2023-10-19T05:54:54;11.55;;;3.28;;
36315;SDS011;22343;50.820;2.666;2023-10-19T05:57:39;8.43;;;3.33;;
36315;SDS011;22343;50.820;2.666;2023-10-19T06:00:26;11.93;;;5.07;;
36315;SDS011;22343;50.820;2.666;2023-10-19T06:03:11;10.25;;;4.70;;
36315;SDS011;22343;50.820;2.666;2023-10-19T06:05:56;9.83;;;3.80;;
36315;SDS011;22343;50.820;2.666;2023-10-19T06:08:40;11.15;;;4.32;;
36315;SDS011;22343;50.820;2.666;2023-10-19T06:11:27;25.52;;;15.93;;
36315;SDS011;22343;50.820;2.666;2023-10-19T06:14:12;16.25;;;8.60;;
36315;SDS011;22343;50.820;2.666;2023-10-19T06:16:57;24.30;;;11.45;;
36315;SDS011;22343;50.820;2.666;2023-10-19T06:19:41;18.70;;;9.10;;
36315;SDS011;22343;50.820;2.666;2023-10-19T06:22:25;11.00;;;4.55;;
36315;SDS011;22343;50.820;2.666;2023-10-19T06:25:10;10.48;;;4.88;;
36315;SDS011;22343;50.820;2.666;2023-10-19T06:27:55;14.55;;;5.28;;
36315;SDS011;22343;50.820;2.666;2023-10-19T06:30:41;13.53;;;5.20;;
36315;SDS011;22343;50.820;2.666;2023-10-19T06:33:26;26.33;;;14.05;;
36315;SDS011;22343;50.820;2.666;2023-10-19T06:36:11;22.35;;;11.45;;
36315;SDS011;22343;50.820;2.666;2023-10-19T06:38:55;23.53;;;11.47;;
36315;SDS011;22343;50.820;2.666;2023-10-19T06:41:39;14.95;;;7.45;;
36315;SDS011;22343;50.820;2.666;2023-10-19T06:44:23;15.35;;;7.70;;
36315;SDS011;22343;50.820;2.666;2023-10-19T06:47:08;15.38;;;7.10;;
36315;SDS011;22343;50.820;2.666;2023-10-19T06:49:52;10.48;;;5.05;;
36315;SDS011;22343;50.820;2.666;2023-10-19T06:52:40;12.95;;;4.80;;
36315;SDS011;22343;50.820;2.666;2023-10-19T06:55:24;9.77;;;4.93;;
36315;SDS011;22343;50.820;2.666;2023-10-19T06:58:09;9.68;;;4.47;;
36315;SDS011;22343;50.820;2.666;2023-10-19T07:00:55;16.85;;;4.72;;
36315;SDS011;22343;50.820;2.666;2023-10-19T07:03:51;12.20;;;4.97;;
36315;SDS011;22343;50.820;2.666;2023-10-19T07:06:37;11.95;;;4.15;;
36315;SDS011;22343;50.820;2.666;2023-10-19T07:09:22;10.50;;;3.83;;
36315;SDS011;22343;50.820;2.666;2023-10-19T07:12:07;10.23;;;3.97;;
36315;SDS011;22343;50.820;2.666;2023-10-19T07:14:52;13.23;;;4.37;;
36315;SDS011;22343;50.820;2.666;2023-10-19T07:17:36;15.05;;;4.75;;
36315;SDS011;22343;50.820;2.666;2023-10-19T07:20:22;18.20;;;5.97;;
36315;SDS011;22343;50.820;2.666;2023-10-19T07:23:09;15.25;;;4.90;;
36315;SDS011;22343;50.820;2.666;2023-10-19T07:25:54;14.63;;;5.50;;
36315;SDS011;22343;50.820;2.666;2023-10-19T07:28:40;13.52;;;4.32;;
36315;SDS011;22343;50.820;2.666;2023-10-19T07:31:26;10.35;;;4.07;;
36315;SDS011;22343;50.820;2.666;2023-10-19T07:34:11;14.20;;;4.30;;
36315;SDS011;22343;50.820;2.666;2023-10-19T07:37:00;13.85;;;4.32;;
36315;SDS011;22343;50.820;2.666;2023-10-19T07:39:45;11.18;;;4.43;;
36315;SDS011;22343;50.820;2.666;2023-10-19T07:42:30;15.85;;;5.03;;
36315;SDS011;22343;50.820;2.666;2023-10-19T07:45:17;14.05;;;5.40;;
36315;SDS011;22343;50.820;2.666;2023-10-19T07:48:01;10.35;;;4.20;;
36315;SDS011;22343;50.820;2.666;2023-10-19T07:50:50;13.73;;;4.78;;
36315;SDS011;22343;50.820;2.666;2023-10-19T07:53:34;13.98;;;4.40;;
36315;SDS011;22343;50.820;2.666;2023-10-19T07:56:19;13.27;;;4.93;;
36315;SDS011;22343;50.820;2.666;2023-10-19T07:59:05;13.82;;;4.90;;
36315;SDS011;22343;50.820;2.666;2023-10-19T08:01:51;9.85;;;4.32;;
36315;SDS011;22343;50.820;2.666;2023-10-19T08:04:35;14.95;;;4.80;;
36315;SDS011;22343;50.820;2.666;2023-10-19T08:07:20;10.80;;;4.35;;
36315;SDS011;22343;50.820;2.666;2023-10-19T08:10:05;11.93;;;4.13;;
36315;SDS011;22343;50.820;2.666;2023-10-19T08:12:50;12.55;;;5.30;;
36315;SDS011;22343;50.820;2.666;2023-10-19T08:15:35;10.70;;;4.38;;
36315;SDS011;22343;50.820;2.666;2023-10-19T08:18:20;11.13;;;4.38;;
36315;SDS011;22343;50.820;2.666;2023-10-19T08:21:04;12.88;;;4.30;;
36315;SDS011;22343;50.820;2.666;2023-10-19T08:23:49;11.30;;;4.32;;
36315;SDS011;22343;50.820;2.666;2023-10-19T08:26:34;12.23;;;5.05;;
36315;SDS011;22343;50.820;2.666;2023-10-19T08:29:19;13.60;;;5.45;;
36315;SDS011;22343;50.820;2.666;2023-10-19T08:32:04;13.27;;;4.72;;
36315;SDS011;22343;50.820;2.666;2023-10-19T08:34:48;13.23;;;4.50;;
36315;SDS011;22343;50.820;2.666;2023-10-19T08:37:32;17.45;;;6.10;;
36315;SDS011;22343;50.820;2.666;2023-10-19T08:40:17;13.90;;;6.40;;
36315;SDS011;22343;50.820;2.666;2023-10-19T08:43:02;15.18;;;6.75;;
36315;SDS011;22343;50.820;2.666;2023-10-19T08:45:48;20.55;;;8.98;;
36315;SDS011;22343;50.820;2.666;2023-10-19T08:48:33;16.17;;;5.57;;
36315;SDS011;22343;50.820;2.666;2023-10-19T08:51:18;12.45;;;4.95;;
36315;SDS011;22343;50.820;2.666;2023-10-19T08:54:03;17.88;;;4.22;;
36315;SDS011;22343;50.820;2.666;2023-10-19T08:56:54;10.98;;;4.70;;
36315;SDS011;22343;50.820;2.666;2023-10-19T08:59:39;11.40;;;4.95;;
36315;SDS011;22343;50.820;2.666;2023-10-19T09:02:24;10.40;;;4.07;;
36315;SDS011;22343;50.820;2.666;2023-10-19T09:05:08;11.10;;;4.63;;
36315;SDS011;22343;50.820;2.666;2023-10-19T09:08:04;14.90;;;4.55;;
36315;SDS011;22343;50.820;2.666;2023-10-19T09:10:50;11.25;;;4.50;;
36315;SDS011;22343;50.820;2.666;2023-10-19T09:13:44;13.48;;;4.63;;
36315;SDS011;22343;50.820;2.666;2023-10-19T09:16:31;10.95;;;4.47;;
36315;SDS011;22343;50.820;2.666;2023-10-19T09:19:15;10.90;;;4.38;;
36315;SDS011;22343;50.820;2.666;2023-10-19T09:22:00;10.68;;;4.40;;
36315;SDS011;22343;50.820;2.666;2023-10-19T09:24:51;11.35;;;4.30;;
36315;SDS011;22343;50.820;2.666;2023-10-19T09:27:39;10.45;;;4.35;;
36315;SDS011;22343;50.820;2.666;2023-10-19T09:30:23;10.52;;;3.70;;
36315;SDS011;22343;50.820;2.666;2023-10-19T09:33:09;11.20;;;4.38;;
36315;SDS011;22343;50.820;2.666;2023-10-19T09:35:55;10.77;;;4.40;;
36315;SDS011;22343;50.820;2.666;2023-10-19T09:38:48;9.48;;;4.05;;
36315;SDS011;22343;50.820;2.666;2023-10-19T09:41:35;11.20;;;4.13;;
36315;SDS011;22343;50.820;2.666;2023-10-19T09:44:20;11.40;;;4.40;;
36315;SDS011;22343;50.820;2.666;2023-10-19T09:47:10;10.32;;;3.97;;
36315;SDS011;22343;50.820;2.666;2023-10-19T09:49:56;11.05;;;4.10;;
36315;SDS011;22343;50.820;2.666;2023-10-19T09:52:41;12.55;;;4.20;;
36315;SDS011;22343;50.820;2.666;2023-10-19T09:55:32;12.77;;;4.00;;
36315;SDS011;22343;50.820;2.666;2023-10-19T09:58:23;10.40;;;3.90;;
36315;SDS011;22343;50.820;2.666;2023-10-19T10:01:10;10.13;;;3.97;;
36315;SDS011;22343;50.820;2.666;2023-10-19T10:03:59;10.52;;;4.40;;
36315;SDS011;22343;50.820;2.666;2023-10-19T10:09:38;10.10;;;4.03;;
36315;SDS011;22343;50.820;2.666;2023-10-19T10:12:24;9.82;;;3.63;;
36315;SDS011;22343;50.820;2.666;2023-10-19T10:15:09;10.30;;;3.90;;
36315;SDS011;22343;50.820;2.666;2023-10-19T10:17:54;9.93;;;4.05;;
36315;SDS011;22343;50.820;2.666;2023-10-19T10:20:42;12.18;;;4.55;;
36315;SDS011;22343;50.820;2.666;2023-10-19T10:23:26;11.80;;;4.25;;
36315;SDS011;22343;50.820;2.666;2023-10-19T10:26:17;10.93;;;3.78;;
36315;SDS011;22343;50.820;2.666;2023-10-19T10:31:58;13.65;;;4.97;;
36315;SDS011;22343;50.820;2.666;2023-10-19T10:34:43;10.48;;;4.45;;
36315;SDS011;22343;50.820;2.666;2023-10-19T10:37:28;9.15;;;4.32;;
36315;SDS011;22343;50.820;2.666;2023-10-19T10:40:17;8.13;;;4.00;;
36315;SDS011;22343;50.820;2.666;2023-10-19T10:43:05;10.93;;;4.53;;
36315;SDS011;22343;50.820;2.666;2023-10-19T10:45:50;9.77;;;3.50;;
36315;SDS011;22343;50.820;2.666;2023-10-19T10:48:40;7.88;;;3.45;;
36315;SDS011;22343;50.820;2.666;2023-10-19T10:51:26;7.88;;;3.50;;
36315;SDS011;22343;50.820;2.666;2023-10-19T10:54:14;4.97;;;2.92;;
36315;SDS011;22343;50.820;2.666;2023-10-19T10:57:05;9.20;;;3.58;;
36315;SDS011;22343;50.820;2.666;2023-10-19T11:00:02;8.60;;;3.30;;
36315;SDS011;22343;50.820;2.666;2023-10-19T11:02:59;7.45;;;3.20;;
36315;SDS011;22343;50.820;2.666;2023-10-19T11:05:44;6.68;;;3.08;;
36315;SDS011;22343;50.820;2.666;2023-10-19T11:08:29;6.80;;;2.97;;
36315;SDS011;22343;50.820;2.666;2023-10-19T11:11:17;7.22;;;3.13;;
36315;SDS011;22343;50.820;2.666;2023-10-19T11:14:20;6.97;;;3.10;;
36315;SDS011;22343;50.820;2.666;2023-10-19T11:17:11;9.73;;;3.15;;
36315;SDS011;22343;50.820;2.666;2023-10-19T11:19:58;5.65;;;3.03;;
36315;SDS011;22343;50.820;2.666;2023-10-19T11:22:49;7.28;;;3.33;;
36315;SDS011;22343;50.820;2.666;2023-10-19T11:25:34;6.70;;;3.20;;
36315;SDS011;22343;50.820;2.666;2023-10-19T11:28:19;7.43;;;3.63;;
36315;SDS011;22343;50.820;2.666;2023-10-19T11:31:15;8.55;;;3.05;;
36315;SDS011;22343;50.820;2.666;2023-10-19T11:34:07;7.13;;;3.53;;
36315;SDS011;22343;50.820;2.666;2023-10-19T11:36:54;5.47;;;3.10;;
36315;SDS011;22343;50.820;2.666;2023-10-19T11:39:40;7.25;;;2.95;;
36315;SDS011;22343;50.820;2.666;2023-10-19T11:42:26;6.05;;;3.15;;
36315;SDS011;22343;50.820;2.666;2023-10-19T11:45:10;6.45;;;3.58;;
36315;SDS011;22343;50.820;2.666;2023-10-19T11:47:55;10.02;;;3.50;;
36315;SDS011;22343;50.820;2.666;2023-10-19T11:50:41;7.30;;;3.05;;
36315;SDS011;22343;50.820;2.666;2023-10-19T11:53:26;9.65;;;3.30;;
36315;SDS011;22343;50.820;2.666;2023-10-19T11:56:10;7.53;;;3.47;;
36315;SDS011;22343;50.820;2.666;2023-10-19T11:58:57;6.30;;;3.05;;
36315;SDS011;22343;50.820;2.666;2023-10-19T12:01:41;8.80;;;3.47;;
36315;SDS011;22343;50.820;2.666;2023-10-19T12:04:26;7.75;;;3.40;;
36315;SDS011;22343;50.820;2.666;2023-10-19T12:07:11;7.45;;;3.30;;
36315;SDS011;22343;50.820;2.666;2023-10-19T12:09:55;6.47;;;3.25;;
36315;SDS011;22343;50.820;2.666;2023-10-19T12:12:40;6.07;;;3.38;;
36315;SDS011;22343;50.820;2.666;2023-10-19T12:15:25;6.65;;;4.47;;
36315;SDS011;22343;50.820;2.666;2023-10-19T12:18:09;6.05;;;3.28;;
36315;SDS011;22343;50.820;2.666;2023-10-19T12:20:54;6.55;;;3.72;;
36315;SDS011;22343;50.820;2.666;2023-10-19T12:23:43;8.20;;;4.68;;
36315;SDS011;22343;50.820;2.666;2023-10-19T12:26:28;6.82;;;4.10;;
36315;SDS011;22343;50.820;2.666;2023-10-19T12:29:14;7.30;;;3.50;;
36315;SDS011;22343;50.820;2.666;2023-10-19T12:32:01;6.95;;;3.22;;
36315;SDS011;22343;50.820;2.666;2023-10-19T12:34:45;6.57;;;3.83;;
36315;SDS011;22343;50.820;2.666;2023-10-19T12:37:29;7.75;;;3.28;;
36315;SDS011;22343;50.820;2.666;2023-10-19T12:40:14;5.90;;;3.63;;
36315;SDS011;22343;50.820;2.666;2023-10-19T12:43:10;8.05;;;3.42;;
36315;SDS011;22343;50.820;2.666;2023-10-19T12:45:56;6.72;;;3.17;;
36315;SDS011;22343;50.820;2.666;2023-10-19T12:48:42;8.00;;;3.20;;
36315;SDS011;22343;50.820;2.666;2023-10-19T12:51:27;6.60;;;3.20;;
36315;SDS011;22343;50.820;2.666;2023-10-19T12:54:11;7.32;;;3.10;;
36315;SDS011;22343;50.820;2.666;2023-10-19T12:56:57;7.80;;;3.70;;
36315;SDS011;22343;50.820;2.666;2023-10-19T12:59:42;4.93;;;3.10;;
36315;SDS011;22343;50.820;2.666;2023-10-19T13:02:28;5.60;;;3.08;;
36315;SDS011;22343;50.820;2.666;2023-10-19T13:05:14;6.05;;;3.10;;
36315;SDS011;22343;50.820;2.666;2023-10-19T13:08:02;6.97;;;3.38;;
36315;SDS011;22343;50.820;2.666;2023-10-19T13:10:50;6.60;;;3.33;;
36315;SDS011;22343;50.820;2.666;2023-10-19T13:13:34;5.75;;;3.25;;
36315;SDS011;22343;50.820;2.666;2023-10-19T13:16:23;4.25;;;3.15;;
36315;SDS011;22343;50.820;2.666;2023-10-19T13:19:09;5.75;;;3.13;;
36315;SDS011;22343;50.820;2.666;2023-10-19T13:21:57;6.82;;;3.20;;
36315;SDS011;22343;50.820;2.666;2023-10-19T13:24:49;6.20;;;3.55;;
36315;SDS011;22343;50.820;2.666;2023-10-19T13:27:33;5.80;;;3.20;;
36315;SDS011;22343;50.820;2.666;2023-10-19T13:30:17;5.95;;;3.17;;
36315;SDS011;22343;50.820;2.666;2023-10-19T13:33:03;5.75;;;2.75;;
36315;SDS011;22343;50.820;2.666;2023-10-19T13:35:48;4.50;;;2.95;;
36315;SDS011;22343;50.820;2.666;2023-10-19T13:38:33;7.55;;;3.20;;
36315;SDS011;22343;50.820;2.666;2023-10-19T13:41:17;4.88;;;3.00;;
36315;SDS011;22343;50.820;2.666;2023-10-19T13:44:02;4.75;;;2.80;;
36315;SDS011;22343;50.820;2.666;2023-10-19T13:46:46;6.22;;;3.03;;
36315;SDS011;22343;50.820;2.666;2023-10-19T13:49:32;7.35;;;2.90;;
36315;SDS011;22343;50.820;2.666;2023-10-19T13:52:16;5.60;;;2.83;;
36315;SDS011;22343;50.820;2.666;2023-10-19T13:55:01;7.60;;;2.90;;
36315;SDS011;22343;50.820;2.666;2023-10-19T13:57:45;5.38;;;2.60;;
36315;SDS011;22343;50.820;2.666;2023-10-19T14:00:32;5.65;;;3.05;;
36315;SDS011;22343;50.820;2.666;2023-10-19T14:03:17;6.38;;;2.85;;
36315;SDS011;22343;50.820;2.666;2023-10-19T14:06:02;6.45;;;3.25;;
36315;SDS011;22343;50.820;2.666;2023-10-19T14:08:46;7.05;;;2.97;;
36315;SDS011;22343;50.820;2.666;2023-10-19T14:11:31;6.38;;;2.90;;
36315;SDS011;22343;50.820;2.666;2023-10-19T14:14:16;6.57;;;2.85;;
36315;SDS011;22343;50.820;2.666;2023-10-19T14:17:00;5.65;;;2.80;;
36315;SDS011;22343;50.820;2.666;2023-10-19T14:19:45;7.18;;;2.97;;
36315;SDS011;22343;50.820;2.666;2023-10-19T14:22:29;7.43;;;3.03;;
36315;SDS011;22343;50.820;2.666;2023-10-19T14:25:14;6.07;;;3.00;;
36315;SDS011;22343;50.820;2.666;2023-10-19T14:27:58;5.72;;;3.00;;
36315;SDS011;22343;50.820;2.666;2023-10-19T14:30:43;6.53;;;2.80;;
36315;SDS011;22343;50.820;2.666;2023-10-19T14:33:28;4.20;;;2.90;;
36315;SDS011;22343;50.820;2.666;2023-10-19T14:36:13;5.60;;;2.72;;
36315;SDS011;22343;50.820;2.666;2023-10-19T14:38:58;9.23;;;2.80;;
36315;SDS011;22343;50.820;2.666;2023-10-19T14:41:43;6.70;;;2.70;;
36315;SDS011;22343;50.820;2.666;2023-10-19T14:44:27;7.07;;;2.65;;
36315;SDS011;22343;50.820;2.666;2023-10-19T14:47:12;8.07;;;3.13;;
36315;SDS011;22343;50.820;2.666;2023-10-19T14:49:57;7.43;;;2.53;;
36315;SDS011;22343;50.820;2.666;2023-10-19T14:52:41;5.43;;;2.30;;
36315;SDS011;22343;50.820;2.666;2023-10-19T14:55:26;5.93;;;2.53;;
36315;SDS011;22343;50.820;2.666;2023-10-19T14:58:11;6.03;;;2.75;;
36315;SDS011;22343;50.820;2.666;2023-10-19T15:00:56;6.75;;;2.63;;
36315;SDS011;22343;50.820;2.666;2023-10-19T15:03:40;5.75;;;2.60;;
36315;SDS011;22343;50.820;2.666;2023-10-19T15:06:25;4.47;;;2.53;;
36315;SDS011;22343;50.820;2.666;2023-10-19T15:09:09;5.47;;;2.85;;
36315;SDS011;22343;50.820;2.666;2023-10-19T15:11:58;7.03;;;2.45;;
36315;SDS011;22343;50.820;2.666;2023-10-19T15:14:43;5.72;;;2.75;;
36315;SDS011;22343;50.820;2.666;2023-10-19T15:17:27;7.40;;;2.53;;
36315;SDS011;22343;50.820;2.666;2023-10-19T15:20:12;7.25;;;2.60;;
36315;SDS011;22343;50.820;2.666;2023-10-19T15:23:01;6.90;;;2.65;;
36315;SDS011;22343;50.820;2.666;2023-10-19T15:25:45;6.57;;;2.60;;
36315;SDS011;22343;50.820;2.666;2023-10-19T15:28:29;7.40;;;2.80;;
36315;SDS011;22343;50.820;2.666;2023-10-19T15:31:17;5.40;;;2.60;;
36315;SDS011;22343;50.820;2.666;2023-10-19T15:34:01;7.07;;;2.80;;
36315;SDS011;22343;50.820;2.666;2023-10-19T15:36:46;6.85;;;2.65;;
36315;SDS011;22343;50.820;2.666;2023-10-19T15:39:31;5.35;;;2.60;;
36315;SDS011;22343;50.820;2.666;2023-10-19T15:42:15;5.50;;;2.70;;
36315;SDS011;22343;50.820;2.666;2023-10-19T15:45:02;6.30;;;2.63;;
36315;SDS011;22343;50.820;2.666;2023-10-19T15:47:47;5.05;;;2.42;;
36315;SDS011;22343;50.820;2.666;2023-10-19T15:50:31;4.65;;;2.47;;
36315;SDS011;22343;50.820;2.666;2023-10-19T15:53:18;5.90;;;2.72;;
36315;SDS011;22343;50.820;2.666;2023-10-19T15:56:03;5.90;;;2.78;;
36315;SDS011;22343;50.820;2.666;2023-10-19T15:58:48;5.63;;;2.50;;
36315;SDS011;22343;50.820;2.666;2023-10-19T16:01:32;6.53;;;2.50;;
36315;SDS011;22343;50.820;2.666;2023-10-19T16:04:17;6.07;;;2.60;;
36315;SDS011;22343;50.820;2.666;2023-10-19T16:07:01;6.53;;;2.85;;
36315;SDS011;22343;50.820;2.666;2023-10-19T16:09:46;4.68;;;2.75;;
36315;SDS011;22343;50.820;2.666;2023-10-19T16:12:30;7.85;;;3.42;;
36315;SDS011;22343;50.820;2.666;2023-10-19T16:15:15;5.95;;;3.08;;
36315;SDS011;22343;50.820;2.666;2023-10-19T16:18:00;7.57;;;3.50;;
36315;SDS011;22343;50.820;2.666;2023-10-19T16:20:45;8.75;;;3.55;;
36315;SDS011;22343;50.820;2.666;2023-10-19T16:23:29;7.82;;;3.42;;
36315;SDS011;22343;50.820;2.666;2023-10-19T16:26:13;5.15;;;3.78;;
36315;SDS011;22343;50.820;2.666;2023-10-19T16:28:58;6.70;;;3.75;;
36315;SDS011;22343;50.820;2.666;2023-10-19T16:31:43;6.47;;;3.92;;
36315;SDS011;22343;50.820;2.666;2023-10-19T16:34:29;6.50;;;3.80;;
36315;SDS011;22343;50.820;2.666;2023-10-19T16:37:15;5.15;;;3.10;;
36315;SDS011;22343;50.820;2.666;2023-10-19T16:40:02;5.78;;;3.35;;
36315;SDS011;22343;50.820;2.666;2023-10-19T16:42:50;7.25;;;3.30;;